Time;durP1;ratioP1;P1;durP2;ratioP2;P2;SDS_P1;SDS_P2;PMS_P1;PMS_P2;Temp;Humidity;BMP_temperature;BMP_pressure;BME280_temperature;BME280_humidity;BME280_pressure;Samples;Min_cycle;Max_cycle;Signal;HPM_P1;HPM_P2
2023/01/09 00:01:52;;;;;;;22.27;12.80;;;2.70;99.90;;;;;;5010554;28;20569;-74
2023/01/09 00:04:19;;;;;;;21.93;13.30;;;2.70;99.90;;;;;;5012520;28;20477;-74
2023/01/09 00:06:52;;;;;;;19.80;14.23;;;2.70;99.90;;;;;;5012534;28;20454;-76
2023/01/09 00:09:19;;;;;;;22.90;13.43;;;2.70;99.90;;;;;;5025669;28;20515;-74
2023/01/09 00:11:46;;;;;;;24.40;15.30;;;2.80;99.90;;;;;;5007512;28;20585;-73
2023/01/09 00:14:14;;;;;;;19.00;13.23;;;2.80;99.90;;;;;;5012451;28;20511;-74
2023/01/09 00:16:41;;;;;;;21.80;14.23;;;2.80;99.90;;;;;;5016398;28;20500;-74
2023/01/09 00:19:09;;;;;;;19.60;12.90;;;2.80;99.90;;;;;;5011601;28;20556;-74
2023/01/09 00:21:37;;;;;;;17.90;12.93;;;2.80;99.90;;;;;;5011950;28;20446;-74
2023/01/09 00:24:04;;;;;;;20.75;12.43;;;2.90;99.90;;;;;;5011059;28;20513;-73
2023/01/09 00:26:32;;;;;;;22.43;13.20;;;2.90;99.90;;;;;;5012081;28;20841;-74
2023/01/09 00:28:59;;;;;;;18.77;11.90;;;2.80;99.90;;;;;;5013869;28;20490;-74
2023/01/09 00:31:26;;;;;;;19.63;12.23;;;2.80;99.90;;;;;;5011192;28;20528;-74
2023/01/09 00:33:56;;;;;;;19.90;13.10;;;2.90;99.90;;;;;;5008782;28;20478;-74
2023/01/09 00:36:24;;;;;;;20.58;12.95;;;2.90;99.90;;;;;;5014586;28;20476;-74
2023/01/09 00:38:51;;;;;;;18.40;13.73;;;2.90;99.90;;;;;;5009080;28;20603;-74
2023/01/09 00:41:22;;;;;;;25.23;12.97;;;2.90;99.90;;;;;;5014375;28;20920;-74
2023/01/09 00:43:57;;;;;;;24.60;13.70;;;2.90;99.90;;;;;;5010429;28;20547;-74
2023/01/09 00:46:32;;;;;;;18.93;12.50;;;3.00;99.90;;;;;;5006428;28;20462;-74
2023/01/09 00:49:02;;;;;;;15.90;10.53;;;2.90;99.90;;;;;;5008142;28;20485;-74
2023/01/09 00:51:30;;;;;;;20.67;11.60;;;2.90;99.90;;;;;;5009482;28;20526;-74
2023/01/09 00:53:58;;;;;;;17.40;12.67;;;3.00;99.90;;;;;;5009554;28;20478;-74
2023/01/09 00:56:25;;;;;;;18.20;11.23;;;3.00;99.90;;;;;;5014356;28;20549;-74
2023/01/09 00:58:52;;;;;;;21.27;12.90;;;3.00;99.90;;;;;;5007494;28;20928;-74
2023/01/09 01:01:19;;;;;;;20.47;12.33;;;2.90;99.90;;;;;;5008084;28;20478;-74
2023/01/09 01:03:46;;;;;;;19.53;12.20;;;2.90;99.90;;;;;;5006663;28;20524;-74
2023/01/09 01:08:59;;;;;;;11.67;10.33;;;2.90;99.90;;;;;;5004924;28;20505;-74
2023/01/09 01:11:25;;;;;;;15.27;10.43;;;2.90;99.90;;;;;;5009748;28;20989;-74
2023/01/09 01:13:53;;;;;;;14.57;10.27;;;3.00;99.90;;;;;;5006742;28;20758;-74
2023/01/09 01:16:20;;;;;;;15.90;11.90;;;3.00;99.90;;;;;;5008660;28;20220;-74
2023/01/09 01:18:47;;;;;;;17.70;10.47;;;3.00;99.90;;;;;;5005119;28;20826;-74
2023/01/09 01:21:14;;;;;;;18.00;10.97;;;3.00;99.90;;;;;;5007046;28;20463;-74
2023/01/09 01:23:42;;;;;;;13.03;8.80;;;3.00;99.90;;;;;;5013000;28;20487;-74
2023/01/09 01:26:12;;;;;;;20.70;12.20;;;3.00;99.90;;;;;;5013034;28;20922;-74
2023/01/09 01:28:39;;;;;;;16.97;11.00;;;3.00;99.90;;;;;;5003749;28;20842;-74
2023/01/09 01:31:07;;;;;;;12.97;10.83;;;2.90;99.90;;;;;;5004383;28;20549;-74
2023/01/09 01:33:34;;;;;;;17.50;11.50;;;2.90;99.90;;;;;;5010708;28;20589;-74
2023/01/09 01:36:03;;;;;;;14.45;10.50;;;2.90;99.90;;;;;;5011023;28;20458;-74
2023/01/09 01:38:31;;;;;;;16.00;11.47;;;2.90;99.90;;;;;;5012552;28;20331;-74
2023/01/09 01:40:58;;;;;;;17.90;10.77;;;2.90;99.90;;;;;;5010069;28;20485;-74
2023/01/09 01:43:26;;;;;;;14.40;9.63;;;2.90;99.90;;;;;;5011220;28;20517;-74
2023/01/09 01:45:53;;;;;;;15.03;10.37;;;2.90;99.90;;;;;;5004268;28;20479;-74
2023/01/09 01:48:24;;;;;;;13.47;9.50;;;2.90;99.90;;;;;;5013737;28;20536;-74
2023/01/09 01:50:54;;;;;;;16.23;11.03;;;2.90;99.90;;;;;;5003468;28;20547;-74
2023/01/09 01:53:25;;;;;;;13.57;8.95;;;2.90;99.90;;;;;;5007942;28;20480;-74
2023/01/09 01:56:03;;;;;;;16.40;10.00;;;3.00;99.90;;;;;;5013948;28;20507;-74
2023/01/09 01:58:33;;;;;;;15.60;10.30;;;3.00;99.90;;;;;;5008203;28;20466;-74
2023/01/09 02:01:00;;;;;;;14.77;10.73;;;3.10;99.90;;;;;;5009097;28;20485;-74
2023/01/09 02:03:29;;;;;;;15.77;11.30;;;2.90;99.90;;;;;;5005572;28;20485;-74
2023/01/09 02:05:56;;;;;;;17.30;12.90;;;3.00;99.90;;;;;;5005168;28;20457;-74
2023/01/09 02:08:23;;;;;;;14.27;10.13;;;3.00;99.90;;;;;;5009635;28;20493;-74
2023/01/09 02:10:50;;;;;;;15.47;11.40;;;2.90;99.90;;;;;;5012409;28;20512;-74
2023/01/09 02:13:18;;;;;;;16.53;11.50;;;2.80;99.90;;;;;;5015082;28;20497;-74
2023/01/09 02:16:01;;;;;;;17.10;10.60;;;2.90;99.90;;;;;;5018435;28;20536;-74
2023/01/09 02:18:40;;;;;;;12.87;10.60;;;2.90;99.90;;;;;;5014250;28;20453;-74
2023/01/09 02:21:14;;;;;;;15.50;9.60;;;2.90;99.90;;;;;;5010597;28;20969;-74
2023/01/09 02:24:10;;;;;;;15.73;10.83;;;2.80;99.90;;;;;;5010983;28;20459;-74
2023/01/09 02:27:03;;;;;;;14.90;11.00;;;2.90;99.90;;;;;;5015332;28;20485;-74
2023/01/09 02:30:10;;;;;;;17.17;11.38;;;2.90;99.90;;;;;;5009039;28;20501;-74
2023/01/09 02:32:48;;;;;;;15.90;11.17;;;2.90;99.90;;;;;;5015533;28;20223;-74
2023/01/09 02:35:31;;;;;;;15.23;11.63;;;2.90;99.90;;;;;;5013475;28;20469;-74
2023/01/09 02:38:09;;;;;;;18.20;11.83;;;3.00;99.90;;;;;;5024424;28;20862;-74
2023/01/09 02:40:44;;;;;;;19.83;11.77;;;2.90;99.90;;;;;;5008036;28;20652;-74
2023/01/09 02:43:12;;;;;;;21.40;13.17;;;3.00;99.90;;;;;;5010460;28;20578;-74
2023/01/09 02:45:39;;;;;;;16.37;11.70;;;3.00;99.90;;;;;;5009011;28;20482;-74
2023/01/09 02:48:10;;;;;;;17.70;11.50;;;3.00;99.90;;;;;;5017414;28;20449;-74
2023/01/09 02:50:42;;;;;;;19.60;13.77;;;3.10;99.90;;;;;;5012824;28;20496;-74
2023/01/09 02:53:29;;;;;;;18.57;11.77;;;3.00;99.90;;;;;;5010872;28;20478;-74
2023/01/09 02:56:19;;;;;;;17.93;10.97;;;2.90;99.90;;;;;;5010313;28;20489;-74
2023/01/09 02:59:06;;;;;;;17.50;12.17;;;2.90;99.90;;;;;;5009271;28;20843;-74
2023/01/09 03:01:43;;;;;;;19.73;13.10;;;2.80;99.90;;;;;;5012198;28;20524;-74
2023/01/09 03:04:21;;;;;;;15.93;11.10;;;2.80;99.90;;;;;;5016802;28;20789;-74
2023/01/09 03:06:54;;;;;;;19.83;13.23;;;2.80;99.90;;;;;;5013051;28;20533;-74
2023/01/09 03:09:26;;;;;;;19.97;11.90;;;2.80;99.90;;;;;;5010069;28;20541;-74
2023/01/09 03:11:58;;;;;;;19.87;13.13;;;2.80;99.90;;;;;;5009809;28;20521;-74
2023/01/09 03:14:26;;;;;;;16.40;11.63;;;2.80;99.90;;;;;;5009382;28;20482;-74
2023/01/09 03:16:58;;;;;;;18.27;12.40;;;2.80;99.90;;;;;;5010741;28;20490;-74
2023/01/09 03:19:31;;;;;;;14.67;12.80;;;2.70;99.90;;;;;;5011613;28;20917;-74
2023/01/09 03:21:58;;;;;;;19.93;13.87;;;2.70;99.90;;;;;;5010743;28;20482;-74
2023/01/09 03:24:25;;;;;;;20.30;11.53;;;2.80;99.90;;;;;;5013514;28;20496;-74
2023/01/09 03:26:53;;;;;;;22.03;13.77;;;2.80;99.90;;;;;;5015478;28;20980;-74
2023/01/09 03:29:20;;;;;;;21.60;14.50;;;2.80;99.90;;;;;;5014312;28;20484;-74
2023/01/09 03:31:47;;;;;;;25.03;14.20;;;2.70;99.90;;;;;;5012560;28;21019;-74
2023/01/09 03:34:13;;;;;;;18.52;12.32;;;2.60;99.90;;;;;;5013103;28;20489;-74
2023/01/09 03:36:42;;;;;;;18.60;12.53;;;2.60;99.90;;;;;;5016575;28;20251;-74
2023/01/09 03:39:09;;;;;;;13.83;11.40;;;2.60;99.90;;;;;;5009569;28;20482;-74
2023/01/09 03:41:36;;;;;;;20.00;13.43;;;2.70;99.90;;;;;;5007907;28;20498;-74
2023/01/09 03:44:03;;;;;;;18.70;12.13;;;2.70;99.90;;;;;;5008513;28;20863;-74
2023/01/09 03:46:29;;;;;;;17.60;12.48;;;2.70;99.90;;;;;;5016519;28;20492;-74
2023/01/09 03:48:56;;;;;;;19.40;12.60;;;2.70;99.90;;;;;;5006596;28;20239;-74
2023/01/09 03:51:23;;;;;;;14.70;11.50;;;2.50;99.90;;;;;;5014089;28;20869;-74
2023/01/09 03:53:52;;;;;;;17.00;12.37;;;2.60;99.90;;;;;;5010381;28;20549;-74
2023/01/09 03:56:19;;;;;;;19.23;12.20;;;2.50;99.90;;;;;;5011360;28;20502;-74
2023/01/09 03:58:45;;;;;;;16.00;11.50;;;2.50;99.90;;;;;;5010584;28;20454;-74
2023/01/09 04:01:12;;;;;;;17.60;13.20;;;2.60;99.90;;;;;;5011329;28;20447;-74
2023/01/09 04:03:39;;;;;;;15.43;11.20;;;2.50;99.90;;;;;;5013578;28;20486;-74
2023/01/09 04:06:07;;;;;;;13.33;10.30;;;2.50;99.90;;;;;;5008214;28;20481;-74
2023/01/09 04:08:34;;;;;;;14.50;11.03;;;2.60;99.90;;;;;;5012079;28;20515;-74
2023/01/09 04:11:03;;;;;;;18.60;13.20;;;2.60;99.90;;;;;;5007543;28;20841;-74
2023/01/09 04:13:29;;;;;;;16.50;12.77;;;2.60;99.90;;;;;;5009385;28;20553;-74
2023/01/09 04:15:56;;;;;;;16.77;12.40;;;2.50;99.90;;;;;;5013770;28;20489;-74
2023/01/09 04:18:24;;;;;;;26.20;12.33;;;2.60;99.90;;;;;;5011012;28;20548;-74
2023/01/09 04:20:51;;;;;;;15.37;10.70;;;2.60;99.90;;;;;;5006173;28;20738;-74
2023/01/09 04:23:18;;;;;;;20.60;13.37;;;2.70;99.90;;;;;;5006799;28;20490;-74
2023/01/09 04:25:46;;;;;;;17.50;12.20;;;2.70;99.90;;;;;;5004888;28;20544;-74
2023/01/09 04:28:14;;;;;;;14.63;11.23;;;2.70;99.90;;;;;;5012842;28;21851;-74
2023/01/09 04:30:41;;;;;;;16.03;11.53;;;2.70;99.90;;;;;;5019021;28;20637;-74
2023/01/09 04:33:08;;;;;;;11.70;9.93;;;2.70;99.90;;;;;;5008329;28;20522;-74
2023/01/09 04:35:35;;;;;;;14.33;10.93;;;2.70;99.90;;;;;;5008987;28;20485;-74
2023/01/09 04:38:02;;;;;;;19.30;11.77;;;2.70;99.90;;;;;;5010003;28;20478;-74
2023/01/09 04:40:29;;;;;;;17.33;12.43;;;2.70;99.90;;;;;;5009045;28;20927;-75
2023/01/09 04:42:56;;;;;;;18.20;12.83;;;2.80;99.90;;;;;;5012170;28;20508;-74
2023/01/09 04:45:24;;;;;;;20.77;12.70;;;2.80;99.90;;;;;;5013418;28;20942;-74
2023/01/09 04:47:51;;;;;;;16.67;11.73;;;2.80;99.90;;;;;;5007462;28;20454;-74
2023/01/09 04:50:18;;;;;;;16.43;11.00;;;2.70;99.90;;;;;;5008940;28;20491;-74
2023/01/09 04:52:45;;;;;;;15.57;11.70;;;2.80;99.90;;;;;;5009082;28;20532;-74
2023/01/09 04:55:12;;;;;;;14.37;11.10;;;2.80;99.90;;;;;;5008405;28;20455;-74
2023/01/09 04:57:39;;;;;;;15.70;10.00;;;2.80;99.90;;;;;;5010864;28;20561;-74
2023/01/09 05:00:10;;;;;;;17.33;12.43;;;2.70;99.90;;;;;;5007131;28;20935;-74
2023/01/09 05:02:39;;;;;;;12.70;10.20;;;2.80;99.90;;;;;;5012382;28;20463;-74
2023/01/09 05:05:07;;;;;;;14.20;10.90;;;2.70;99.90;;;;;;5013818;28;20890;-74
2023/01/09 05:07:35;;;;;;;15.23;9.93;;;2.70;99.90;;;;;;5005176;28;20498;-74
2023/01/09 05:10:02;;;;;;;18.13;12.60;;;2.70;99.90;;;;;;5004060;28;20482;-74
2023/01/09 05:12:29;;;;;;;22.50;13.43;;;2.70;99.90;;;;;;5010591;28;21037;-74
2023/01/09 05:14:57;;;;;;;22.20;14.57;;;2.70;99.90;;;;;;5013270;28;20536;-74
2023/01/09 05:17:24;;;;;;;20.90;14.00;;;2.80;99.90;;;;;;5011564;28;20637;-74
2023/01/09 05:19:52;;;;;;;23.23;14.40;;;2.80;99.90;;;;;;5005519;28;20494;-74
2023/01/09 05:22:19;;;;;;;19.23;12.93;;;2.80;99.90;;;;;;5008243;28;20493;-74
2023/01/09 05:24:46;;;;;;;19.57;13.67;;;2.80;99.90;;;;;;5010867;28;20479;-74
2023/01/09 05:27:13;;;;;;;18.27;13.10;;;2.80;99.90;;;;;;5008647;28;20502;-74
2023/01/09 05:29:40;;;;;;;17.40;13.03;;;2.90;99.90;;;;;;5015614;28;20486;-74
2023/01/09 05:32:07;;;;;;;21.23;14.33;;;2.90;99.90;;;;;;5005172;28;20981;-74
2023/01/09 05:34:34;;;;;;;20.90;13.50;;;2.90;99.90;;;;;;5006628;28;20528;-74
2023/01/09 05:37:02;;;;;;;21.57;12.70;;;2.90;99.90;;;;;;5008114;28;20462;-74
2023/01/09 05:39:29;;;;;;;19.57;13.83;;;2.90;99.90;;;;;;5007941;28;20482;-74
2023/01/09 05:41:56;;;;;;;25.83;14.47;;;2.90;99.90;;;;;;5008287;28;20521;-74
2023/01/09 05:44:23;;;;;;;22.03;13.17;;;2.90;99.90;;;;;;5010537;28;20492;-74
2023/01/09 05:46:50;;;;;;;22.53;14.00;;;2.90;99.90;;;;;;5004047;28;20517;-74
2023/01/09 05:49:17;;;;;;;19.20;13.97;;;2.80;99.90;;;;;;5014752;28;20470;-74
2023/01/09 05:51:44;;;;;;;20.17;13.60;;;2.90;99.90;;;;;;5010473;28;20570;-74
2023/01/09 05:54:12;;;;;;;20.67;14.23;;;2.80;99.90;;;;;;5014535;28;20804;-74
2023/01/09 05:56:39;;;;;;;18.40;14.20;;;2.80;99.90;;;;;;5008492;28;20490;-74
2023/01/09 05:59:06;;;;;;;20.30;13.80;;;2.80;99.90;;;;;;5005619;28;20544;-74
2023/01/09 06:01:33;;;;;;;23.47;15.90;;;2.90;99.90;;;;;;5011276;28;20476;-74
2023/01/09 06:04:00;;;;;;;18.53;14.37;;;2.90;99.90;;;;;;5015874;28;20498;-74
2023/01/09 06:06:27;;;;;;;27.87;15.40;;;2.90;99.90;;;;;;5011840;28;20490;-74
2023/01/09 06:08:54;;;;;;;26.63;15.20;;;2.80;99.90;;;;;;5022031;28;20962;-74
2023/01/09 06:11:22;;;;;;;24.53;15.33;;;2.80;99.90;;;;;;5023868;28;20583;-74
2023/01/09 06:13:49;;;;;;;18.75;13.65;;;2.80;99.90;;;;;;5020076;28;20578;-74
2023/01/09 06:16:16;;;;;;;23.90;16.30;;;2.80;99.90;;;;;;5028201;28;20280;-74
2023/01/09 06:18:43;;;;;;;28.67;16.33;;;2.80;99.90;;;;;;5029389;28;20894;-74
2023/01/09 06:21:10;;;;;;;33.63;15.70;;;2.80;99.90;;;;;;5012081;28;20535;-74
2023/01/09 06:23:37;;;;;;;25.53;15.27;;;2.80;99.90;;;;;;5021489;28;20462;-74
2023/01/09 06:26:04;;;;;;;21.17;14.80;;;2.80;99.90;;;;;;5017187;28;20865;-74
2023/01/09 06:28:32;;;;;;;32.80;16.60;;;2.80;99.90;;;;;;5025021;28;20446;-74
2023/01/09 06:30:59;;;;;;;20.30;12.43;;;2.80;99.90;;;;;;5020238;28;20474;-74
2023/01/09 06:33:26;;;;;;;20.83;13.07;;;2.80;99.90;;;;;;5020853;28;20525;-74
2023/01/09 06:35:53;;;;;;;21.97;14.87;;;2.80;99.90;;;;;;5022297;28;20465;-75
2023/01/09 06:38:20;;;;;;;27.13;15.77;;;2.80;99.90;;;;;;5021394;28;20470;-75
2023/01/09 06:40:49;;;;;;;23.37;13.70;;;2.80;99.90;;;;;;5020814;28;20580;-74
2023/01/09 06:43:16;;;;;;;23.30;15.43;;;2.80;99.90;;;;;;5019835;28;20902;-74
2023/01/09 06:45:44;;;;;;;26.67;16.90;;;2.80;99.90;;;;;;5018608;28;20988;-74
2023/01/09 06:48:11;;;;;;;31.70;17.47;;;2.80;99.90;;;;;;5022535;28;20482;-74
2023/01/09 06:50:38;;;;;;;28.97;18.37;;;2.80;99.90;;;;;;5026943;28;20497;-75
2023/01/09 06:53:05;;;;;;;26.63;15.10;;;2.80;99.90;;;;;;5022041;28;20517;-75
2023/01/09 06:55:32;;;;;;;31.27;18.57;;;2.80;99.90;;;;;;5019334;28;20541;-74
2023/01/09 06:57:59;;;;;;;27.40;16.77;;;2.80;99.90;;;;;;5023334;28;21074;-75
2023/01/09 07:00:26;;;;;;;27.07;17.87;;;2.80;99.90;;;;;;5024353;28;20478;-75
2023/01/09 07:02:55;;;;;;;30.57;16.77;;;2.80;99.90;;;;;;5016660;28;20463;-75
2023/01/09 07:05:21;;;;;;;28.03;16.87;;;2.90;99.90;;;;;;5024111;28;20925;-74
2023/01/09 07:07:49;;;;;;;24.80;15.17;;;3.00;99.90;;;;;;5021826;28;20520;-74
2023/01/09 07:10:16;;;;;;;24.60;13.90;;;3.00;99.90;;;;;;5014203;28;20466;-74
2023/01/09 07:12:43;;;;;;;30.90;17.47;;;3.10;99.90;;;;;;5026715;28;21149;-74
2023/01/09 07:15:10;;;;;;;24.03;14.60;;;3.20;99.90;;;;;;5009045;28;20524;-74
2023/01/09 07:17:37;;;;;;;21.10;13.90;;;3.20;99.90;;;;;;5017189;28;20478;-74
2023/01/09 07:20:07;;;;;;;25.47;15.07;;;3.30;99.90;;;;;;5024522;28;20503;-74
2023/01/09 07:22:34;;;;;;;22.97;13.67;;;3.30;99.90;;;;;;5013485;28;20481;-74
2023/01/09 07:25:01;;;;;;;23.33;13.30;;;3.30;99.90;;;;;;5035692;28;20476;-74
2023/01/09 07:27:28;;;;;;;20.47;14.10;;;3.30;99.90;;;;;;5021856;28;20991;-73
2023/01/09 07:29:55;;;;;;;20.33;11.47;;;3.30;99.90;;;;;;5023474;28;20438;-74
2023/01/09 07:32:22;;;;;;;20.43;11.80;;;3.30;99.90;;;;;;5023603;28;20543;-73
2023/01/09 07:34:50;;;;;;;16.43;12.60;;;3.20;99.90;;;;;;5026407;28;20593;-74
2023/01/09 07:37:18;;;;;;;18.03;13.20;;;3.10;99.90;;;;;;5016836;28;20709;-73
2023/01/09 07:39:45;;;;;;;22.30;13.17;;;3.10;99.90;;;;;;5033213;28;20530;-73
2023/01/09 07:42:12;;;;;;;23.63;14.40;;;3.10;99.90;;;;;;5024177;28;20515;-74
2023/01/09 07:44:39;;;;;;;27.17;15.20;;;3.00;99.90;;;;;;5027269;28;20454;-73
2023/01/09 07:47:06;;;;;;;26.37;15.20;;;3.00;99.90;;;;;;5009150;28;20548;-74
2023/01/09 07:49:33;;;;;;;20.63;14.60;;;2.90;99.90;;;;;;5028403;28;20481;-74
2023/01/09 07:52:00;;;;;;;29.73;15.83;;;2.90;99.90;;;;;;5019438;28;20527;-75
2023/01/09 07:54:28;;;;;;;25.23;15.37;;;2.90;99.90;;;;;;5028683;28;20494;-75
2023/01/09 07:56:55;;;;;;;24.83;14.20;;;3.00;99.90;;;;;;5023452;28;21158;-75
2023/01/09 07:59:22;;;;;;;26.83;15.25;;;3.00;99.90;;;;;;5021039;28;20515;-74
2023/01/09 08:01:49;;;;;;;24.57;15.60;;;3.00;99.90;;;;;;5017339;28;20301;-74
2023/01/09 08:04:16;;;;;;;21.63;14.60;;;3.10;99.90;;;;;;5010878;28;20493;-74
2023/01/09 08:06:43;;;;;;;21.53;14.70;;;3.20;99.90;;;;;;5009832;28;20462;-74
2023/01/09 08:09:10;;;;;;;15.60;10.17;;;3.30;99.90;;;;;;5016547;28;20493;-74
2023/01/09 08:11:38;;;;;;;16.90;11.57;;;3.50;99.90;;;;;;5015397;28;20807;-74
2023/01/09 08:14:05;;;;;;;14.13;9.20;;;3.60;99.90;;;;;;5024905;28;20548;-74
2023/01/09 08:16:32;;;;;;;12.97;9.00;;;3.70;99.90;;;;;;5019259;28;20466;-74
2023/01/09 08:18:59;;;;;;;7.23;4.17;;;4.00;99.90;;;;;;5027295;28;20450;-74
2023/01/09 08:21:26;;;;;;;6.88;4.78;;;4.40;99.90;;;;;;5022991;28;20985;-74
2023/01/09 08:23:54;;;;;;;3.67;2.73;;;4.70;99.90;;;;;;5031485;28;20322;-74
2023/01/09 08:26:20;;;;;;;3.23;2.10;;;4.80;99.90;;;;;;5021152;28;20497;-74
2023/01/09 08:28:49;;;;;;;6.90;2.80;;;5.00;99.90;;;;;;5016022;28;20588;-74
2023/01/09 08:31:16;;;;;;;2.80;2.43;;;5.00;99.90;;;;;;5021906;28;20563;-74
2023/01/09 08:33:43;;;;;;;1.90;1.63;;;5.20;99.90;;;;;;5023444;28;20544;-74
2023/01/09 08:36:10;;;;;;;1.93;1.20;;;5.30;99.90;;;;;;5015386;28;20541;-74
2023/01/09 08:38:37;;;;;;;2.20;1.33;;;5.30;99.90;;;;;;5026860;28;20476;-73
2023/01/09 08:47:04;;;;;;;2.40;1.60;;;5.40;99.90;;;;;;5017093;28;20466;-74
2023/01/09 08:49:21;;;;;;;7.43;3.73;;;5.50;99.90;;;;;;5025087;28;20552;-74
2023/01/09 08:51:48;;;;;;;10.13;4.20;;;5.50;99.90;;;;;;5020606;28;20461;-74
2023/01/09 08:54:15;;;;;;;4.40;2.07;;;5.50;99.90;;;;;;5023665;28;21024;-74
2023/01/09 08:56:42;;;;;;;6.13;2.93;;;5.40;99.90;;;;;;5022705;28;20469;-74
2023/01/09 08:59:11;;;;;;;1.20;1.07;;;5.40;99.90;;;;;;5018793;28;20482;-75
2023/01/09 09:01:38;;;;;;;1.57;1.47;;;5.40;99.90;;;;;;5019097;28;20583;-75
2023/01/09 09:04:05;;;;;;;0.53;0.50;;;5.40;99.90;;;;;;5026027;28;20523;-74
2023/01/09 09:06:32;;;;;;;2.33;0.90;;;5.40;99.90;;;;;;5023233;28;20450;-74
2023/01/09 09:09:02;;;;;;;0.50;0.50;;;5.40;99.90;;;;;;5032491;28;20551;-74
2023/01/09 09:11:29;;;;;;;0.70;0.50;;;5.40;99.90;;;;;;5029866;28;20563;-74
2023/01/09 09:13:56;;;;;;;0.37;0.30;;;5.30;99.90;;;;;;5020336;28;20586;-74
2023/01/09 09:16:25;;;;;;;0.30;0.20;;;5.30;99.90;;;;;;5018069;28;20968;-74
2023/01/09 09:18:52;;;;;;;1.40;0.27;;;5.30;99.90;;;;;;5033910;28;20520;-74
2023/01/09 09:21:20;;;;;;;0.40;0.20;;;5.30;99.90;;;;;;5005913;28;20953;-73
2023/01/09 09:23:47;;;;;;;1.33;0.37;;;5.30;99.90;;;;;;5019886;28;20452;-74
2023/01/09 09:26:14;;;;;;;0.70;0.60;;;5.30;99.90;;;;;;5020626;28;20486;-74
2023/01/09 09:28:41;;;;;;;0.70;0.70;;;5.30;99.90;;;;;;5023141;28;20489;-74
2023/01/09 09:31:08;;;;;;;1.83;1.73;;;5.30;99.90;;;;;;5018640;28;20466;-74
2023/01/09 09:33:36;;;;;;;5.00;4.57;;;5.40;99.90;;;;;;5022903;28;20528;-74
2023/01/09 09:36:03;;;;;;;1.17;1.17;;;5.50;99.90;;;;;;5034381;28;20914;-75
2023/01/09 09:38:30;;;;;;;1.80;1.70;;;5.50;99.90;;;;;;5029360;28;20504;-74
2023/01/09 09:47:06;;;;;;;0.80;0.80;;;5.70;99.90;;;;;;5015389;28;20473;-74
2023/01/09 09:49:43;;;;;;;1.27;1.23;;;5.80;99.90;;;;;;5015335;28;20506;-74
2023/01/09 09:52:19;;;;;;;1.20;0.50;;;5.80;99.90;;;;;;5014603;28;21021;-76
2023/01/09 09:54:49;;;;;;;0.83;0.63;;;5.70;99.90;;;;;;5017957;28;20561;-76
2023/01/09 09:57:20;;;;;;;2.27;0.60;;;5.80;99.90;;;;;;5014796;28;20462;-75
2023/01/09 09:59:50;;;;;;;0.53;0.50;;;5.90;99.90;;;;;;5009734;28;20799;-76
2023/01/09 10:02:26;;;;;;;0.50;0.40;;;5.90;99.90;;;;;;5010825;28;20464;-76
2023/01/09 10:05:00;;;;;;;0.40;0.40;;;6.00;99.90;;;;;;5021032;28;20473;-76
2023/01/09 10:07:31;;;;;;;0.40;0.30;;;6.10;99.90;;;;;;5013740;28;21016;-76
2023/01/09 10:10:00;;;;;;;1.10;0.40;;;6.10;99.90;;;;;;5019339;28;20235;-76
2023/01/09 10:12:30;;;;;;;0.60;0.30;;;6.20;99.90;;;;;;5014907;28;20505;-75
2023/01/09 10:14:59;;;;;;;1.57;0.30;;;6.20;99.90;;;;;;5013850;28;21206;-76
2023/01/09 10:17:39;;;;;;;0.60;0.33;;;6.30;99.90;;;;;;5013618;28;20494;-75
2023/01/09 10:20:32;;;;;;;0.40;0.30;;;6.30;99.90;;;;;;5026645;28;20455;-76
2023/01/09 10:23:10;;;;;;;0.40;0.30;;;6.40;99.90;;;;;;5014931;28;20466;-76
2023/01/09 10:25:44;;;;;;;0.70;0.30;;;6.40;99.90;;;;;;5014328;28;20975;-75
2023/01/09 10:28:34;;;;;;;0.43;0.20;;;6.40;99.90;;;;;;5011411;28;20458;-76
2023/01/09 10:31:09;;;;;;;0.40;0.20;;;6.40;99.90;;;;;;5017210;28;20491;-76
2023/01/09 10:33:52;;;;;;;0.37;0.23;;;6.40;99.90;;;;;;5025625;28;20517;-75
2023/01/09 10:36:40;;;;;;;0.40;0.30;;;6.30;99.90;;;;;;5011162;28;20486;-76
2023/01/09 10:39:12;;;;;;;0.40;0.20;;;6.30;99.90;;;;;;5005598;28;20543;-75
2023/01/09 10:41:46;;;;;;;8.43;0.40;;;6.30;99.90;;;;;;5012306;28;20512;-76
2023/01/09 10:44:19;;;;;;;0.43;0.32;;;6.30;99.90;;;;;;5010276;28;20535;-76
2023/01/09 10:46:49;;;;;;;0.50;0.50;;;6.30;99.90;;;;;;5013066;28;20209;-76
2023/01/09 10:49:17;;;;;;;0.50;0.30;;;6.30;99.90;;;;;;5009514;28;20782;-76
2023/01/09 10:51:48;;;;;;;0.60;0.30;;;6.30;99.90;;;;;;5013749;28;20462;-76
2023/01/09 10:54:18;;;;;;;0.60;0.40;;;6.30;99.90;;;;;;5016817;28;20743;-76
2023/01/09 10:56:53;;;;;;;0.40;0.27;;;6.40;99.90;;;;;;5017593;28;20989;-76
2023/01/09 10:59:20;;;;;;;0.40;0.30;;;6.30;99.90;;;;;;5017719;28;20475;-76
2023/01/09 11:01:47;;;;;;;0.40;0.30;;;6.30;99.90;;;;;;5012494;28;20551;-76
2023/01/09 11:04:27;;;;;;;0.40;0.30;;;6.30;99.90;;;;;;5014664;28;20454;-76
2023/01/09 11:07:00;;;;;;;0.93;0.30;;;6.30;99.90;;;;;;5018345;28;20498;-76
2023/01/09 11:09:27;;;;;;;0.90;0.20;;;6.30;99.90;;;;;;5023219;28;20879;-76
2023/01/09 11:11:53;;;;;;;0.40;0.27;;;6.40;99.90;;;;;;5022909;28;20482;-76
2023/01/09 11:14:30;;;;;;;0.40;0.30;;;6.40;99.90;;;;;;5016786;28;20804;-76
2023/01/09 11:16:58;;;;;;;1.23;0.30;;;6.50;99.90;;;;;;5015832;28;20463;-76
2023/01/09 11:19:26;;;;;;;0.40;0.20;;;6.70;99.90;;;;;;5011592;28;21211;-76
2023/01/09 11:22:07;;;;;;;0.40;0.20;;;6.80;99.90;;;;;;5014202;28;20556;-76
2023/01/09 11:24:35;;;;;;;0.40;0.25;;;6.80;99.90;;;;;;5023680;28;20450;-76
2023/01/09 11:27:26;;;;;;;0.40;0.30;;;6.80;99.90;;;;;;5008247;28;20238;-77
2023/01/09 11:30:18;;;;;;;1.00;0.33;;;6.80;99.90;;;;;;5022083;28;20477;-77
2023/01/09 11:32:48;;;;;;;0.60;0.30;;;6.70;99.90;;;;;;5023114;28;20825;-76
2023/01/09 11:35:22;;;;;;;0.90;0.40;;;6.70;99.90;;;;;;5021468;28;20498;-76
2023/01/09 11:38:01;;;;;;;0.43;0.30;;;6.60;99.90;;;;;;5021763;28;20471;-76
2023/01/09 11:40:29;;;;;;;0.57;0.33;;;6.40;99.90;;;;;;5019985;28;20449;-76
2023/01/09 11:43:11;;;;;;;0.53;0.43;;;6.30;99.90;;;;;;5022081;28;20485;-75
2023/01/09 11:45:44;;;;;;;2.10;1.30;;;6.20;99.90;;;;;;5020297;28;20489;-76
2023/01/09 11:48:17;;;;;;;0.90;0.50;;;6.20;99.90;;;;;;5022368;28;20450;-76
2023/01/09 11:50:55;;;;;;;3.17;1.33;;;6.20;99.90;;;;;;5017725;28;20465;-76
2023/01/09 11:53:24;;;;;;;3.77;2.00;;;6.30;99.90;;;;;;5019324;28;20464;-77
2023/01/09 11:55:57;;;;;;;3.23;1.30;;;6.40;99.90;;;;;;5021444;28;20455;-77
2023/01/09 11:58:25;;;;;;;2.45;1.33;;;6.40;99.90;;;;;;5012534;28;20559;-77
2023/01/09 12:01:01;;;;;;;1.50;0.60;;;6.50;99.90;;;;;;5021946;28;20662;-77
2023/01/09 12:03:42;;;;;;;3.13;1.30;;;6.60;99.90;;;;;;5024225;28;20514;-77
2023/01/09 12:06:21;;;;;;;1.30;1.20;;;6.50;99.90;;;;;;5023415;28;20479;-77
2023/01/09 12:08:56;;;;;;;1.63;0.80;;;6.60;99.90;;;;;;5023305;28;20520;-77
2023/01/09 12:11:38;;;;;;;1.53;0.70;;;6.60;99.90;;;;;;5020139;28;20493;-77
2023/01/09 12:14:34;;;;;;;0.60;0.40;;;6.60;99.90;;;;;;5016234;28;20569;-78
2023/01/09 12:17:27;;;;;;;1.80;0.90;;;6.60;99.90;;;;;;5012400;28;20477;-77
2023/01/09 12:20:20;;;;;;;0.50;0.50;;;6.60;99.90;;;;;;5016491;28;20515;-78
2023/01/09 12:22:57;;;;;;;2.47;1.00;;;6.60;99.90;;;;;;5013669;28;20543;-78
2023/01/09 12:25:37;;;;;;;0.60;0.60;;;6.60;99.90;;;;;;5008448;28;20475;-78
2023/01/09 12:28:25;;;;;;;1.97;1.17;;;6.50;99.90;;;;;;5016192;28;20489;-78
2023/01/09 12:31:04;;;;;;;2.57;0.90;;;6.60;99.90;;;;;;5012812;28;20489;-78
2023/01/09 12:33:43;;;;;;;1.50;1.27;;;6.60;99.90;;;;;;5032908;28;20480;-77
2023/01/09 12:36:18;;;;;;;1.37;0.70;;;6.70;99.90;;;;;;5016094;28;20485;-78
2023/01/09 12:38:54;;;;;;;14.27;6.80;;;6.70;99.90;;;;;;5014210;28;20484;-78
2023/01/09 12:41:47;;;;;;;6.83;3.80;;;6.80;99.90;;;;;;5008030;28;20929;-78
2023/01/09 12:44:34;;;;;;;0.80;0.50;;;6.90;99.90;;;;;;5011704;28;20555;-77
2023/01/09 12:47:16;;;;;;;0.50;0.40;;;6.90;99.90;;;;;;5022139;28;20562;-77
2023/01/09 12:49:50;;;;;;;0.40;0.30;;;6.80;99.90;;;;;;5034105;28;20442;-77
2023/01/09 12:52:22;;;;;;;0.70;0.30;;;6.80;99.90;;;;;;5020896;28;20452;-77
2023/01/09 12:54:57;;;;;;;0.60;0.30;;;6.90;99.90;;;;;;5021023;28;21146;-77
2023/01/09 12:57:31;;;;;;;0.40;0.20;;;6.90;99.90;;;;;;5020365;28;20546;-76
2023/01/09 13:00:03;;;;;;;0.40;0.30;;;6.90;99.90;;;;;;5023193;28;20917;-76
2023/01/09 13:02:35;;;;;;;0.40;0.30;;;6.80;99.90;;;;;;5022972;28;20488;-76
2023/01/09 13:05:09;;;;;;;0.50;0.30;;;6.80;99.90;;;;;;5023985;28;21005;-76
2023/01/09 13:07:42;;;;;;;0.40;0.20;;;6.70;99.90;;;;;;5019108;28;20888;-76
2023/01/09 13:10:19;;;;;;;0.40;0.30;;;6.70;99.90;;;;;;5011018;28;20466;-76
2023/01/09 13:12:49;;;;;;;0.63;0.43;;;6.60;99.90;;;;;;5022131;28;20862;-77
2023/01/09 13:15:27;;;;;;;1.03;0.40;;;6.70;99.90;;;;;;5021514;28;20521;-76